Time;durP1;ratioP1;P1;durP2;ratioP2;P2;SDS_P1;SDS_P2;PMS_P1;PMS_P2;Temp;Humidity;BMP_temperature;BMP_pressure;BME280_temperature;BME280_humidity;BME280_pressure;Samples;Min_cycle;Max_cycle;Signal;HPM_P1;HPM_P2
2021/10/27 00:02:21;;;;;;;12.00;7.55;;;13.40;95.10;;;;;;5012041;28;20034;-76
2021/10/27 00:04:46;;;;;;;11.48;8.13;;;13.50;95.10;;;;;;5011519;28;20036;-76
2021/10/27 00:07:14;;;;;;;17.38;8.35;;;13.40;95.10;;;;;;5029079;28;20044;-76
2021/10/27 00:09:40;;;;;;;11.97;9.63;;;13.40;95.10;;;;;;5011761;28;20497;-76
2021/10/27 00:12:07;;;;;;;12.70;8.27;;;13.40;95.10;;;;;;5029224;28;20069;-76
2021/10/27 00:14:33;;;;;;;12.93;9.00;;;13.40;95.10;;;;;;5028891;28;20074;-76
2021/10/27 00:16:58;;;;;;;16.02;9.40;;;13.40;95.10;;;;;;5030081;28;20442;-76
2021/10/27 00:19:24;;;;;;;11.77;8.02;;;13.40;95.20;;;;;;5028734;28;20124;-76
2021/10/27 00:21:50;;;;;;;12.35;7.60;;;13.40;95.20;;;;;;5044250;27;20086;-76
2021/10/27 00:24:16;;;;;;;12.75;8.48;;;13.40;95.20;;;;;;4995066;28;20065;-76
2021/10/27 00:26:42;;;;;;;15.85;9.27;;;13.40;95.20;;;;;;5028904;28;20046;-76
2021/10/27 00:29:08;;;;;;;15.80;9.00;;;13.40;95.20;;;;;;5011554;28;20075;-76
2021/10/27 00:31:33;;;;;;;17.48;8.63;;;13.40;95.20;;;;;;4994943;28;20390;-76
2021/10/27 00:33:59;;;;;;;14.85;8.52;;;13.40;95.20;;;;;;5028464;28;20017;-76
2021/10/27 00:36:25;;;;;;;13.52;8.85;;;13.40;95.20;;;;;;5009311;28;20689;-76
2021/10/27 00:38:51;;;;;;;13.57;8.80;;;13.40;95.50;;;;;;5010714;28;20033;-76
2021/10/27 00:41:16;;;;;;;14.38;8.20;;;13.40;95.20;;;;;;5009260;28;20124;-76
2021/10/27 00:43:42;;;;;;;15.77;9.00;;;13.40;95.20;;;;;;5010638;28;20078;-76
2021/10/27 00:46:17;;;;;;;15.15;8.98;;;13.40;95.20;;;;;;5010590;28;20052;-76
2021/10/27 00:48:43;;;;;;;15.93;8.70;;;13.40;95.20;;;;;;5024832;28;20026;-76
2021/10/27 00:51:09;;;;;;;11.88;8.07;;;13.40;95.10;;;;;;5027449;28;20032;-76
2021/10/27 00:53:36;;;;;;;16.75;8.25;;;13.40;95.10;;;;;;5008922;28;20424;-76
2021/10/27 00:56:01;;;;;;;13.50;8.60;;;13.40;95.10;;;;;;5009587;28;20037;-76
2021/10/27 00:58:28;;;;;;;18.00;8.80;;;13.40;95.10;;;;;;5028150;28;20022;-76
2021/10/27 01:00:54;;;;;;;16.35;7.85;;;13.40;95.10;;;;;;5026839;28;20037;-76
2021/10/27 01:03:19;;;;;;;16.13;8.00;;;13.40;95.10;;;;;;5011119;28;20026;-75
2021/10/27 01:05:45;;;;;;;12.20;8.00;;;13.40;95.10;;;;;;5028456;28;20025;-76
2021/10/27 01:08:11;;;;;;;15.02;8.45;;;13.40;95.10;;;;;;5010235;28;20036;-76
2021/10/27 01:10:37;;;;;;;13.95;7.15;;;13.40;95.10;;;;;;5006633;28;20486;-76
2021/10/27 01:13:03;;;;;;;15.65;8.07;;;13.40;95.10;;;;;;5027324;28;20036;-76
2021/10/27 01:15:28;;;;;;;15.95;7.90;;;13.50;95.10;;;;;;5010366;28;20033;-76
2021/10/27 01:17:54;;;;;;;12.23;7.90;;;13.40;95.10;;;;;;5009153;28;20423;-75
2021/10/27 01:20:20;;;;;;;15.07;7.70;;;13.40;95.10;;;;;;5009834;28;20359;-76
2021/10/27 01:22:45;;;;;;;16.55;8.15;;;13.40;95.20;;;;;;5009395;28;20052;-76
2021/10/27 01:25:12;;;;;;;14.73;7.60;;;13.40;95.10;;;;;;5009550;28;20061;-75
2021/10/27 01:27:43;;;;;;;17.05;7.78;;;13.40;95.10;;;;;;5010288;28;20038;-76
2021/10/27 01:30:15;;;;;;;15.50;7.13;;;13.50;95.20;;;;;;5027967;28;20030;-76
2021/10/27 01:32:42;;;;;;;13.60;7.25;;;13.40;95.10;;;;;;5006220;28;20505;-76
2021/10/27 01:35:08;;;;;;;14.27;7.50;;;13.40;95.10;;;;;;5027895;28;20033;-76
2021/10/27 01:37:36;;;;;;;13.13;7.40;;;13.50;95.10;;;;;;5028514;28;20379;-76
2021/10/27 01:40:03;;;;;;;14.88;6.80;;;13.40;95.10;;;;;;5005147;28;20078;-76
2021/10/27 01:42:29;;;;;;;16.98;7.40;;;13.40;95.10;;;;;;5009538;28;20021;-75
2021/10/27 01:44:54;;;;;;;13.85;6.80;;;13.40;95.20;;;;;;5009976;28;20033;-76
2021/10/27 01:47:20;;;;;;;14.48;7.20;;;13.40;95.50;;;;;;5028123;28;20420;-76
2021/10/27 01:49:47;;;;;;;21.77;6.80;;;13.40;95.20;;;;;;5027926;28;20450;-76
2021/10/27 01:52:13;;;;;;;15.38;7.75;;;13.40;95.20;;;;;;5010462;28;20070;-76
2021/10/27 01:54:40;;;;;;;17.70;7.10;;;13.40;95.20;;;;;;5031432;28;20419;-76
2021/10/27 01:57:07;;;;;;;12.20;6.65;;;13.50;95.50;;;;;;5028246;28;20037;-76
2021/10/27 01:59:33;;;;;;;19.13;7.25;;;13.50;95.20;;;;;;5028804;28;20025;-76
2021/10/27 02:01:59;;;;;;;18.83;7.25;;;13.40;95.20;;;;;;5031197;28;20033;-76
2021/10/27 02:04:25;;;;;;;11.60;6.95;;;13.40;95.20;;;;;;5031355;28;20062;-76
2021/10/27 02:06:51;;;;;;;15.32;7.82;;;13.50;95.30;;;;;;5016082;28;20037;-76
2021/10/27 02:09:16;;;;;;;13.95;7.00;;;13.50;95.30;;;;;;5031516;28;20030;-76
2021/10/27 02:11:42;;;;;;;14.55;7.05;;;13.40;95.20;;;;;;5030774;28;20036;-76
2021/10/27 02:14:08;;;;;;;17.00;7.97;;;13.40;95.20;;;;;;5013580;28;20038;-76
2021/10/27 02:16:34;;;;;;;15.05;7.28;;;13.50;95.20;;;;;;5031963;28;20290;-76
2021/10/27 02:19:00;;;;;;;14.70;7.28;;;13.50;95.50;;;;;;5030859;28;20037;-76
2021/10/27 02:21:25;;;;;;;21.65;7.80;;;13.50;95.20;;;;;;5013320;28;20037;-76
2021/10/27 02:23:51;;;;;;;17.23;7.00;;;13.40;95.20;;;;;;5030118;28;20033;-76
2021/10/27 02:26:20;;;;;;;17.05;7.15;;;13.50;95.20;;;;;;5030892;28;20049;-76
2021/10/27 02:28:46;;;;;;;;;;;13.50;95.20;;;;;;5031328;28;20482;-76
2021/10/27 02:31:12;;;;;;;13.55;6.78;;;13.50;95.10;;;;;;5013071;28;19920;-76
2021/10/27 02:33:37;;;;;;;16.45;7.30;;;13.40;95.10;;;;;;5030548;28;20032;-76
2021/10/27 02:36:03;;;;;;;12.10;6.97;;;13.50;95.40;;;;;;5012816;28;20623;-76
2021/10/27 02:38:29;;;;;;;12.82;6.38;;;13.50;95.10;;;;;;5013005;28;20026;-76
2021/10/27 02:40:56;;;;;;;18.20;6.10;;;13.50;95.10;;;;;;5030553;28;20521;-76
2021/10/27 02:43:21;;;;;;;16.83;7.55;;;13.50;95.10;;;;;;5028139;28;20028;-76
2021/10/27 02:45:48;;;;;;;21.10;7.50;;;13.50;95.10;;;;;;5030910;28;20034;-76
2021/10/27 02:48:14;;;;;;;13.38;6.68;;;13.50;95.10;;;;;;5012670;28;20128;-76
2021/10/27 02:50:41;;;;;;;14.35;6.72;;;13.50;95.40;;;;;;5030765;28;20129;-76
2021/10/27 02:53:07;;;;;;;11.20;5.82;;;13.40;95.10;;;;;;5030547;28;20026;-76
2021/10/27 02:55:33;;;;;;;14.20;6.55;;;13.50;95.10;;;;;;5030202;28;20385;-76
2021/10/27 02:58:00;;;;;;;11.10;5.95;;;13.50;95.10;;;;;;5012613;28;20082;-76
2021/10/27 03:00:26;;;;;;;13.23;7.18;;;13.50;95.10;;;;;;5030241;28;20029;-76
2021/10/27 03:02:52;;;;;;;13.68;6.18;;;13.50;95.00;;;;;;5030330;28;20110;-76
2021/10/27 03:05:20;;;;;;;13.30;6.82;;;13.50;95.10;;;;;;5028433;28;20034;-76
2021/10/27 03:07:47;;;;;;;12.68;7.00;;;13.40;95.00;;;;;;5029872;28;20045;-76
2021/10/27 03:10:12;;;;;;;13.93;6.47;;;13.40;95.00;;;;;;5030225;28;20078;-76
2021/10/27 03:12:38;;;;;;;18.45;7.30;;;13.40;95.00;;;;;;5012337;28;20022;-76
2021/10/27 03:15:04;;;;;;;16.17;6.68;;;13.40;95.00;;;;;;5012756;28;20056;-76
2021/10/27 03:17:30;;;;;;;14.45;6.78;;;13.40;95.00;;;;;;5029985;28;20079;-76
2021/10/27 03:19:55;;;;;;;22.50;7.05;;;13.40;95.00;;;;;;5028482;28;20037;-76
2021/10/27 03:22:21;;;;;;;14.10;6.30;;;13.40;95.00;;;;;;5025441;28;20497;-76
2021/10/27 03:24:47;;;;;;;18.85;6.88;;;13.40;95.00;;;;;;5012237;28;20116;-76
2021/10/27 03:27:13;;;;;;;15.27;6.68;;;13.40;95.10;;;;;;5029910;28;20037;-76
2021/10/27 03:29:39;;;;;;;15.43;7.10;;;13.40;95.10;;;;;;5012369;28;20034;-76
2021/10/27 03:32:05;;;;;;;14.75;6.72;;;13.40;95.10;;;;;;5030200;28;20086;-76
2021/10/27 03:34:30;;;;;;;15.95;7.13;;;13.40;95.10;;;;;;5012153;28;20557;-76
2021/10/27 03:36:56;;;;;;;18.23;7.15;;;13.40;95.10;;;;;;5029694;28;20033;-76
2021/10/27 03:39:22;;;;;;;14.88;7.03;;;13.40;95.00;;;;;;5012361;28;20034;-76
2021/10/27 03:41:48;;;;;;;18.17;7.10;;;13.40;95.00;;;;;;5029860;28;20025;-76
2021/10/27 03:44:13;;;;;;;15.77;6.63;;;13.40;95.00;;;;;;5030047;28;20501;-76
2021/10/27 03:46:39;;;;;;;11.35;6.68;;;13.40;95.10;;;;;;5011740;28;20077;-76
2021/10/27 03:49:05;;;;;;;10.90;6.25;;;13.40;95.10;;;;;;5029808;28;20434;-76
2021/10/27 03:51:31;;;;;;;13.25;6.47;;;13.40;95.10;;;;;;5029784;28;20028;-76
2021/10/27 03:53:57;;;;;;;15.95;6.53;;;13.40;95.00;;;;;;5012329;28;20398;-76
2021/10/27 03:56:23;;;;;;;13.82;6.63;;;13.40;95.30;;;;;;5029838;28;20030;-76
2021/10/27 03:58:48;;;;;;;16.40;6.88;;;13.40;95.00;;;;;;5012174;28;20034;-76
2021/10/27 04:01:14;;;;;;;17.55;6.97;;;13.40;95.00;;;;;;5029282;28;20439;-76
2021/10/27 04:03:40;;;;;;;14.60;6.85;;;13.40;95.00;;;;;;5029814;28;20033;-76
2021/10/27 04:06:06;;;;;;;13.63;6.50;;;13.40;95.00;;;;;;5028873;28;20049;-76
2021/10/27 04:08:32;;;;;;;13.57;6.57;;;13.40;95.00;;;;;;5024740;28;21475;-76
2021/10/27 04:10:57;;;;;;;13.70;6.55;;;13.40;95.00;;;;;;5011493;28;20033;-76
2021/10/27 04:13:23;;;;;;;15.48;6.38;;;13.40;95.00;;;;;;5011837;28;20550;-76
2021/10/27 04:15:50;;;;;;;15.88;6.10;;;13.30;95.00;;;;;;5027983;28;20098;-76
2021/10/27 04:18:16;;;;;;;13.15;6.35;;;13.30;94.90;;;;;;5012039;28;20033;-75
2021/10/27 04:20:41;;;;;;;12.48;5.97;;;13.30;94.90;;;;;;5028658;28;20497;-76
2021/10/27 04:23:08;;;;;;;14.60;5.90;;;13.30;94.90;;;;;;5027717;28;20057;-76
2021/10/27 04:25:34;;;;;;;10.63;5.55;;;13.20;94.90;;;;;;5028405;28;20047;-76
2021/10/27 04:28:00;;;;;;;16.45;6.25;;;13.20;94.90;;;;;;5009563;28;20075;-76
2021/10/27 04:30:26;;;;;;;16.38;6.00;;;13.10;94.90;;;;;;5009636;28;20040;-76
2021/10/27 04:32:52;;;;;;;14.85;5.60;;;13.10;95.00;;;;;;5027630;28;20423;-76
2021/10/27 04:35:19;;;;;;;12.60;5.43;;;13.10;95.00;;;;;;5010936;28;20094;-75
2021/10/27 04:37:45;;;;;;;12.60;5.78;;;13.00;95.10;;;;;;5011161;28;20080;-76
2021/10/27 04:40:16;;;;;;;13.43;5.70;;;13.00;95.10;;;;;;5025126;28;20057;-76
2021/10/27 04:42:42;;;;;;;11.30;5.78;;;13.10;95.20;;;;;;5013913;28;20580;-76
2021/10/27 04:45:10;;;;;;;15.02;5.88;;;13.00;95.10;;;;;;5029207;28;20112;-76
2021/10/27 04:47:36;;;;;;;15.68;6.10;;;13.00;95.10;;;;;;5032452;28;20449;-76
2021/10/27 04:50:06;;;;;;;13.45;5.78;;;13.10;95.10;;;;;;5013938;28;20587;-76
2021/10/27 04:52:32;;;;;;;17.88;5.65;;;13.00;95.10;;;;;;5011438;28;20394;-76
2021/10/27 04:54:58;;;;;;;12.48;5.45;;;13.00;95.10;;;;;;5012848;28;20032;-76
2021/10/27 04:57:23;;;;;;;12.35;5.13;;;13.00;95.10;;;;;;5011021;28;20045;-76
2021/10/27 04:59:49;;;;;;;12.75;5.40;;;13.00;95.10;;;;;;5028702;28;20068;-76
2021/10/27 05:02:17;;;;;;;12.88;6.22;;;13.00;95.10;;;;;;5010773;28;20037;-76
2021/10/27 05:04:44;;;;;;;14.63;6.65;;;13.00;95.10;;;;;;5028339;28;20026;-76
2021/10/27 05:07:13;;;;;;;12.00;6.40;;;13.00;95.10;;;;;;5028465;28;20044;-76
2021/10/27 05:09:39;;;;;;;11.68;5.40;;;13.00;95.10;;;;;;5003203;28;20045;-76
2021/10/27 05:12:05;;;;;;;14.77;6.95;;;13.00;95.10;;;;;;5010454;28;20049;-76
2021/10/27 05:14:41;;;;;;;14.80;6.20;;;13.00;95.10;;;;;;5027012;28;20117;-76
2021/10/27 05:17:10;;;;;;;14.60;6.50;;;13.10;95.20;;;;;;5010977;28;20499;-76
2021/10/27 05:19:40;;;;;;;16.65;7.57;;;13.00;95.10;;;;;;5029770;28;20029;-76
2021/10/27 05:22:07;;;;;;;13.07;6.32;;;13.00;95.10;;;;;;5026077;28;20044;-77
2021/10/27 05:24:33;;;;;;;15.93;7.07;;;13.00;95.10;;;;;;5010855;28;20055;-77
2021/10/27 05:26:58;;;;;;;12.25;6.50;;;13.00;95.10;;;;;;4994212;28;20030;-76
2021/10/27 05:29:24;;;;;;;17.10;6.68;;;13.00;95.10;;;;;;5028478;28;20501;-77
2021/10/27 05:31:50;;;;;;;12.40;6.53;;;13.00;95.10;;;;;;5028877;28;20047;-77
2021/10/27 05:34:16;;;;;;;12.80;6.85;;;13.00;95.10;;;;;;5010320;28;20116;-77
2021/10/27 05:36:42;;;;;;;14.63;6.22;;;13.00;95.10;;;;;;5010783;28;20067;-76
2021/10/27 05:39:09;;;;;;;13.63;6.97;;;13.00;95.20;;;;;;5028817;28;20038;-76
2021/10/27 05:41:35;;;;;;;11.90;6.13;;;13.00;95.10;;;;;;5020793;28;20546;-76
2021/10/27 05:44:02;;;;;;;11.80;6.40;;;13.00;95.10;;;;;;5008327;28;20033;-76
2021/10/27 05:46:28;;;;;;;14.27;6.85;;;13.00;95.10;;;;;;5026126;28;20040;-76
2021/10/27 05:49:42;;;;;;;13.50;6.63;;;13.00;95.10;;;;;;5007800;28;20069;-77
2021/10/27 05:51:52;;;;;;;16.33;6.95;;;13.00;95.00;;;;;;5028360;28;20042;-77
2021/10/27 05:57:03;;;;;;;12.75;5.97;;;13.00;95.30;;;;;;5029537;28;20044;-77
2021/10/27 05:59:28;;;;;;;11.30;6.43;;;13.00;95.10;;;;;;5028280;28;20036;-76
2021/10/27 06:01:54;;;;;;;12.15;6.80;;;13.00;95.00;;;;;;5010737;28;20033;-77
2021/10/27 06:04:19;;;;;;;13.20;6.45;;;13.00;95.00;;;;;;5028332;28;20037;-77
2021/10/27 06:06:45;;;;;;;9.20;5.80;;;13.10;95.00;;;;;;5010631;28;20037;-76
2021/10/27 06:09:11;;;;;;;11.02;6.72;;;13.00;95.00;;;;;;5010722;28;20129;-76
2021/10/27 06:11:37;;;;;;;15.20;6.80;;;13.00;94.90;;;;;;5011238;28;20811;-76
2021/10/27 06:14:03;;;;;;;15.07;6.10;;;13.10;94.90;;;;;;4994399;28;20068;-76
2021/10/27 06:16:29;;;;;;;13.00;6.43;;;13.10;94.90;;;;;;5028544;28;20033;-76
2021/10/27 06:18:55;;;;;;;9.63;6.13;;;13.10;94.90;;;;;;5028969;28;20037;-76
2021/10/27 06:21:21;;;;;;;10.77;6.20;;;13.10;94.90;;;;;;5011526;28;20037;-76
2021/10/27 06:23:47;;;;;;;13.43;5.80;;;13.10;94.80;;;;;;5029041;28;20029;-76
2021/10/27 06:26:13;;;;;;;14.90;7.00;;;13.10;94.80;;;;;;5011381;28;20034;-76
2021/10/27 06:28:46;;;;;;;12.70;6.00;;;13.10;94.80;;;;;;5029153;28;20026;-76
2021/10/27 06:31:21;;;;;;;17.38;6.72;;;13.10;94.70;;;;;;5011381;28;20034;-76
2021/10/27 06:46:49;;;;;;;12.38;6.85;;;13.10;94.70;;;;;;5031508;28;20107;-77
2021/10/27 06:49:15;;;;;;;14.63;6.97;;;13.20;94.70;;;;;;5045415;28;20401;-76
2021/10/27 06:51:41;;;;;;;13.05;7.03;;;13.20;94.70;;;;;;4993651;28;20109;-77
2021/10/27 06:54:07;;;;;;;12.07;6.80;;;13.20;94.60;;;;;;5024857;28;20112;-77
2021/10/27 06:56:35;;;;;;;12.35;6.53;;;13.20;94.60;;;;;;5014622;28;20025;-77
2021/10/27 06:59:27;;;;;;;11.50;4.83;;;13.20;94.60;;;;;;5031996;28;20079;-77
2021/10/27 07:15:49;;;;;;;13.95;6.40;;;13.30;94.50;;;;;;5042813;28;20155;-77
2021/10/27 07:18:07;;;;;;;12.82;5.95;;;13.30;94.40;;;;;;5029349;28;20034;-77
2021/10/27 07:20:32;;;;;;;20.10;6.50;;;13.30;94.40;;;;;;5018188;28;20398;-77
2021/10/27 07:23:01;;;;;;;14.50;6.38;;;13.30;94.30;;;;;;5031331;28;20110;-77
2021/10/27 07:25:35;;;;;;;14.30;6.28;;;13.30;94.30;;;;;;5014359;28;20025;-77
2021/10/27 07:28:00;;;;;;;11.50;5.60;;;13.30;94.30;;;;;;5013507;28;20128;-77
2021/10/27 07:30:26;;;;;;;12.38;6.18;;;13.40;94.20;;;;;;5030765;28;20108;-77
2021/10/27 07:32:55;;;;;;;11.82;5.72;;;13.40;94.20;;;;;;5011826;28;20397;-77
2021/10/27 07:35:29;;;;;;;10.57;5.65;;;13.40;94.10;;;;;;5029292;28;20050;-77
2021/10/27 07:40:43;;;;;;;11.63;6.10;;;13.40;94.10;;;;;;5029677;28;20127;-77
2021/10/27 07:43:24;;;;;;;9.98;5.45;;;13.50;94.10;;;;;;5029033;28;20025;-77
2021/10/27 07:45:50;;;;;;;14.73;6.07;;;13.50;94.00;;;;;;5011965;28;20045;-76
2021/10/27 07:48:17;;;;;;;12.43;5.78;;;13.50;93.80;;;;;;5089788;28;20052;-77
2021/10/27 07:50:43;;;;;;;12.48;5.47;;;13.50;93.80;;;;;;5093851;28;20036;-77
2021/10/27 07:53:12;;;;;;;13.30;6.45;;;13.50;93.70;;;;;;5093790;28;20170;-77
2021/10/27 07:55:42;;;;;;;12.30;5.53;;;13.60;93.70;;;;;;5093969;28;20494;-77
2021/10/27 07:58:10;;;;;;;13.25;5.40;;;13.60;93.70;;;;;;5093739;28;20480;-77
2021/10/27 08:00:36;;;;;;;14.13;5.57;;;13.60;93.60;;;;;;5094322;28;20028;-77
2021/10/27 08:03:03;;;;;;;13.55;5.65;;;13.60;93.50;;;;;;5092872;28;20032;-77
2021/10/27 08:05:37;;;;;;;8.35;5.20;;;13.70;93.50;;;;;;5093972;28;20020;-77
2021/10/27 08:08:04;;;;;;;14.30;5.63;;;13.70;93.50;;;;;;5094159;28;20408;-77
2021/10/27 08:10:31;;;;;;;10.05;5.10;;;13.70;93.30;;;;;;5093700;28;20020;-77
2021/10/27 08:12:58;;;;;;;8.82;5.05;;;13.80;93.30;;;;;;5104697;28;20027;-77
2021/10/27 08:15:24;;;;;;;11.50;5.53;;;13.80;93.20;;;;;;5092454;28;20039;-77
2021/10/27 08:17:50;;;;;;;9.63;4.80;;;13.80;93.20;;;;;;5091726;28;20107;-77
2021/10/27 08:20:18;;;;;;;10.48;4.50;;;13.90;93.10;;;;;;5093100;28;20092;-77
2021/10/27 08:22:46;;;;;;;12.77;5.28;;;13.90;93.00;;;;;;5092788;28;20028;-77
2021/10/27 08:25:25;;;;;;;9.63;4.85;;;13.90;92.90;;;;;;5091074;28;20043;-76
2021/10/27 08:27:51;;;;;;;13.75;5.00;;;13.90;92.80;;;;;;5093532;28;20074;-77
2021/10/27 08:30:19;;;;;;;11.90;5.22;;;13.90;92.80;;;;;;5092404;28;20734;-77
2021/10/27 08:32:52;;;;;;;14.20;4.47;;;14.00;92.80;;;;;;5075719;28;20036;-77
2021/10/27 08:35:18;;;;;;;9.00;4.13;;;14.10;92.70;;;;;;5093019;28;20067;-77
2021/10/27 08:37:49;;;;;;;8.55;3.88;;;14.20;92.60;;;;;;5093756;28;20055;-77
2021/10/27 08:40:20;;;;;;;9.60;4.20;;;14.30;92.60;;;;;;5112126;28;20030;-77
2021/10/27 08:42:46;;;;;;;8.77;4.30;;;14.30;92.20;;;;;;5099052;28;20024;-77
2021/10/27 08:45:13;;;;;;;7.57;4.40;;;14.50;92.00;;;;;;5092144;28;20036;-77
2021/10/27 08:47:40;;;;;;;12.25;4.32;;;14.50;91.80;;;;;;5016042;28;20556;-77
2021/10/27 08:50:13;;;;;;;12.77;4.00;;;14.60;91.70;;;;;;5010934;28;20486;-77
2021/10/27 08:52:43;;;;;;;5.45;3.88;;;14.60;91.70;;;;;;5009699;28;20026;-77
2021/10/27 08:55:12;;;;;;;11.02;3.78;;;14.70;91.70;;;;;;5010879;28;20083;-77
2021/10/27 08:57:39;;;;;;;8.65;3.95;;;14.70;91.20;;;;;;5009670;28;20091;-77
2021/10/27 09:05:34;;;;;;;14.15;3.97;;;14.90;91.40;;;;;;5010950;28;20466;-77
2021/10/27 09:16:36;;;;;;;9.18;4.30;;;15.30;90.80;;;;;;5009566;28;20386;-77
2021/10/27 10:06:32;;;;;;;13.52;3.47;;;16.50;87.30;;;;;;5023205;28;20033;-77
2021/10/27 10:08:58;;;;;;;7.75;3.50;;;16.50;87.40;;;;;;5029427;28;20021;-77
2021/10/27 10:11:26;;;;;;;9.93;3.10;;;16.60;86.70;;;;;;5017607;28;20029;-77
2021/10/27 10:13:53;;;;;;;8.00;3.55;;;16.60;86.60;;;;;;5019495;28;20034;-77
2021/10/27 10:16:20;;;;;;;6.53;3.10;;;16.70;85.90;;;;;;5032021;28;20017;-77
2021/10/27 10:18:47;;;;;;;10.63;3.20;;;16.80;86.20;;;;;;5032830;28;20028;-77
2021/10/27 10:21:22;;;;;;;5.55;3.00;;;16.90;86.90;;;;;;5067487;27;20033;-77
2021/10/27 10:23:47;;;;;;;7.18;3.50;;;17.00;86.30;;;;;;5013452;28;20033;-77
2021/10/27 10:26:31;;;;;;;6.35;3.17;;;17.00;85.80;;;;;;5012304;28;20033;-77
2021/10/27 10:28:57;;;;;;;7.93;3.17;;;17.10;85.40;;;;;;5017746;28;20022;-77
2021/10/27 10:31:35;;;;;;;12.75;3.00;;;17.10;85.40;;;;;;5013560;28;20675;-77
2021/10/27 10:34:07;;;;;;;6.72;2.97;;;17.20;85.50;;;;;;5043229;28;20393;-77
2021/10/27 10:36:37;;;;;;;8.10;2.88;;;17.30;85.00;;;;;;5013352;28;20386;-77
2021/10/27 10:59:41;;;;;;;6.85;2.45;;;17.50;85.20;;;;;;5030523;28;20064;-77
2021/10/27 11:27:36;;;;;;;11.32;2.45;;;18.00;82.00;;;;;;5014821;28;20179;-77
2021/10/27 11:38:57;;;;;;;7.47;2.08;;;18.10;82.00;;;;;;5031353;28;20566;-77
2021/10/27 11:42:00;;;;;;;9.70;2.10;;;18.10;82.30;;;;;;5030972;28;20048;-77
2021/10/27 11:44:58;;;;;;;8.57;2.28;;;18.20;81.80;;;;;;4998399;28;20029;-77
2021/10/27 11:47:41;;;;;;;6.40;2.00;;;18.20;82.10;;;;;;5030497;28;20049;-77
2021/10/27 11:50:11;;;;;;;5.55;1.80;;;18.20;81.50;;;;;;5031005;28;20030;-77
2021/10/27 11:52:38;;;;;;;9.38;2.13;;;18.30;80.80;;;;;;5013049;28;20141;-77
2021/10/27 11:55:05;;;;;;;6.18;2.10;;;18.40;80.80;;;;;;5030829;28;20025;-77
2021/10/27 11:57:32;;;;;;;5.72;2.20;;;18.40;80.70;;;;;;5013145;28;20025;-77
2021/10/27 11:59:58;;;;;;;12.02;2.10;;;18.50;80.50;;;;;;5013176;28;20490;-77
2021/10/27 12:02:25;;;;;;;7.00;1.92;;;18.50;79.60;;;;;;5030605;28;20039;-77
2021/10/27 12:04:55;;;;;;;9.13;1.92;;;18.50;79.50;;;;;;5013523;28;20029;-77
2021/10/27 12:07:53;;;;;;;7.55;1.92;;;18.50;79.90;;;;;;5030499;28;20029;-77
2021/10/27 12:10:38;;;;;;;6.00;1.73;;;18.60;80.10;;;;;;5030373;28;20082;-77
2021/10/27 12:13:05;;;;;;;4.53;1.48;;;18.60;79.60;;;;;;5012549;28;20551;-77
2021/10/27 12:18:09;;;;;;;7.40;1.90;;;18.60;79.60;;;;;;5013451;28;20041;-77
2021/10/27 12:20:52;;;;;;;10.45;1.95;;;18.60;79.20;;;;;;5012478;28;20075;-77
2021/10/27 12:23:19;;;;;;;6.93;1.80;;;18.60;78.90;;;;;;5012502;28;20070;-76
2021/10/27 12:25:45;;;;;;;7.15;1.83;;;18.60;78.60;;;;;;5030290;28;20493;-77
2021/10/27 12:28:35;;;;;;;6.00;2.08;;;18.50;79.50;;;;;;5028994;28;20029;-77
2021/10/27 12:31:15;;;;;;;4.03;1.73;;;18.50;79.50;;;;;;5030002;28;20478;-77
2021/10/27 12:33:42;;;;;;;9.68;1.77;;;18.30;79.60;;;;;;5030046;28;20074;-77
2021/10/27 12:36:26;;;;;;;6.88;1.67;;;18.30;79.00;;;;;;5011783;28;20125;-76
2021/10/27 12:39:41;;;;;;;6.90;1.85;;;18.20;79.40;;;;;;5012243;28;20412;-77
2021/10/27 12:42:08;;;;;;;7.03;2.00;;;18.20;79.50;;;;;;5029538;28;20037;-77
2021/10/27 12:45:01;;;;;;;10.35;2.08;;;18.10;79.30;;;;;;5012259;28;20076;-77
2021/10/27 12:47:29;;;;;;;7.47;1.80;;;18.10;80.10;;;;;;5030433;28;20085;-77
2021/10/27 12:50:15;;;;;;;6.10;1.60;;;18.10;80.60;;;;;;5012412;28;20033;-77
2021/10/27 12:52:58;;;;;;;6.85;1.73;;;18.10;80.60;;;;;;5029585;28;20023;-77
2021/10/27 12:55:38;;;;;;;5.03;1.63;;;18.20;80.90;;;;;;5012332;28;20032;-77
2021/10/27 12:58:05;;;;;;;5.85;1.50;;;18.20;80.10;;;;;;5011753;28;20056;-77
2021/10/27 13:32:00;;;;;;;6.18;1.75;;;18.30;80.30;;;;;;5013167;28;20027;-77
2021/10/27 13:34:26;;;;;;;4.95;1.35;;;18.30;80.00;;;;;;5013287;28;20386;-77
2021/10/27 13:36:53;;;;;;;5.88;1.50;;;18.20;79.90;;;;;;5010791;28;20101;-77
2021/10/27 13:39:19;;;;;;;9.55;1.58;;;18.20;80.20;;;;;;5011312;28;20029;-78
2021/10/27 13:41:51;;;;;;;6.60;1.90;;;18.20;79.70;;;;;;5029221;28;20048;-77
2021/10/27 13:44:21;;;;;;;4.32;1.30;;;18.30;79.20;;;;;;5011264;28;20038;-77
2021/10/27 14:08:26;;;;;;;6.10;1.30;;;17.80;81.30;;;;;;5030867;28;20066;-77
2021/10/27 14:13:43;;;;;;;3.75;1.30;;;17.70;81.60;;;;;;5031699;28;20485;-77
2021/10/27 14:48:20;;;;;;;5.38;1.20;;;17.40;83.30;;;;;;5037302;28;20525;-76
2021/10/27 15:20:53;;;;;;;4.93;1.35;;;16.50;85.10;;;;;;5011411;28;20044;-77
2021/10/27 15:23:44;;;;;;;5.82;1.65;;;16.50;85.20;;;;;;5032218;28;20030;-77
2021/10/27 15:53:00;;;;;;;3.10;1.55;;;15.90;87.00;;;;;;5027283;28;20363;-77
2021/10/27 15:55:26;;;;;;;4.70;1.65;;;15.90;87.30;;;;;;5030827;28;20456;-77
2021/10/27 15:57:51;;;;;;;5.93;2.33;;;15.80;87.40;;;;;;5013896;28;20033;-78
2021/10/27 16:00:19;;;;;;;7.95;2.55;;;15.80;87.60;;;;;;5031034;28;20033;-78
2021/10/27 16:02:45;;;;;;;7.37;2.70;;;15.80;87.70;;;;;;5025511;28;20037;-78
2021/10/27 16:05:11;;;;;;;10.05;3.42;;;15.70;87.70;;;;;;5029303;28;20291;-77
2021/10/27 16:07:36;;;;;;;5.68;3.08;;;15.70;87.90;;;;;;5012926;28;20038;-78
2021/10/27 16:10:13;;;;;;;8.27;2.88;;;15.60;88.00;;;;;;5013731;28;20342;-78
2021/10/27 16:12:39;;;;;;;7.45;2.80;;;15.50;88.20;;;;;;5031048;28;20018;-78
2021/10/27 16:15:12;;;;;;;6.30;2.85;;;15.50;88.40;;;;;;5030419;28;20101;-78
2021/10/27 16:17:40;;;;;;;8.75;2.88;;;15.40;88.40;;;;;;5014000;28;20030;-78
2021/10/27 16:20:06;;;;;;;7.30;2.50;;;15.40;88.40;;;;;;5031200;28;20096;-79
2021/10/27 16:22:32;;;;;;;5.55;2.50;;;15.40;88.50;;;;;;5031112;28;20041;-79
2021/10/27 16:24:57;;;;;;;5.07;2.50;;;15.30;88.60;;;;;;5045725;28;20029;-79
2021/10/27 16:27:23;;;;;;;5.22;2.22;;;15.30;88.80;;;;;;5045904;28;20094;-78
2021/10/27 16:29:49;;;;;;;5.97;2.38;;;15.20;88.80;;;;;;5013651;28;20037;-78
2021/10/27 16:32:14;;;;;;;5.30;2.13;;;15.20;88.90;;;;;;5030841;28;20030;-78
2021/10/27 16:34:41;;;;;;;5.32;2.78;;;15.10;89.10;;;;;;5028533;28;20033;-77
2021/10/27 16:37:06;;;;;;;7.07;2.28;;;15.00;89.20;;;;;;5030437;28;20034;-78
2021/10/27 16:39:32;;;;;;;7.93;2.38;;;15.00;89.40;;;;;;5030652;28;20034;-78
2021/10/27 16:41:58;;;;;;;7.70;2.38;;;14.90;89.50;;;;;;5029585;28;20049;-78
2021/10/27 16:44:24;;;;;;;6.28;2.45;;;14.90;89.70;;;;;;5012902;28;20030;-78
2021/10/27 16:46:50;;;;;;;4.43;2.22;;;14.80;89.80;;;;;;4996739;28;20140;-78
2021/10/27 16:49:16;;;;;;;3.95;2.08;;;14.80;90.00;;;;;;5030182;28;20030;-77
2021/10/27 16:51:42;;;;;;;5.68;2.03;;;14.80;90.00;;;;;;5030412;28;20081;-78
2021/10/27 16:54:07;;;;;;;4.82;2.17;;;14.70;90.00;;;;;;5013135;28;20448;-78
2021/10/27 16:56:33;;;;;;;2.67;1.80;;;14.70;90.00;;;;;;5012564;28;20025;-78
2021/10/27 16:58:59;;;;;;;4.78;2.03;;;14.60;90.10;;;;;;5030539;28;20106;-78
2021/10/27 17:01:26;;;;;;;13.65;2.20;;;14.60;90.40;;;;;;5012921;28;20061;-78
2021/10/27 17:03:51;;;;;;;8.23;1.95;;;14.60;90.20;;;;;;5012966;28;20535;-78
2021/10/27 17:06:17;;;;;;;7.28;2.25;;;14.60;90.20;;;;;;5012665;28;20120;-78
2021/10/27 17:08:43;;;;;;;4.28;2.00;;;14.50;90.20;;;;;;5012471;28;20068;-78
2021/10/27 17:11:09;;;;;;;4.25;2.45;;;14.50;90.20;;;;;;5028956;28;20390;-77
2021/10/27 17:13:35;;;;;;;4.80;2.63;;;14.50;90.60;;;;;;5010402;28;20030;-78
2021/10/27 17:16:01;;;;;;;6.57;2.92;;;14.40;90.30;;;;;;5010775;28;20026;-78
2021/10/27 17:18:32;;;;;;;6.13;2.45;;;14.40;90.40;;;;;;5027433;28;20037;-78
2021/10/27 17:20:59;;;;;;;4.78;2.65;;;14.40;90.40;;;;;;5010932;28;20044;-78
2021/10/27 17:23:30;;;;;;;5.88;2.47;;;14.40;90.50;;;;;;5008472;28;20415;-78
2021/10/27 17:25:57;;;;;;;8.70;2.40;;;14.30;90.50;;;;;;5011613;28;20482;-78
2021/10/27 17:28:23;;;;;;;6.35;2.20;;;14.30;90.50;;;;;;5010885;28;20034;-78
2021/10/27 17:30:48;;;;;;;7.15;2.20;;;14.30;90.50;;;;;;4995907;28;20032;-78
2021/10/27 17:33:15;;;;;;;8.40;2.38;;;14.30;90.50;;;;;;5008723;28;20033;-78
2021/10/27 17:35:41;;;;;;;7.65;2.10;;;14.30;90.50;;;;;;5033424;28;20029;-78
2021/10/27 17:38:09;;;;;;;6.18;2.40;;;14.30;90.50;;;;;;5045363;28;20033;-78
2021/10/27 17:40:40;;;;;;;4.93;2.20;;;14.20;90.50;;;;;;5027755;28;20402;-78
2021/10/27 17:43:09;;;;;;;5.07;2.33;;;14.20;90.50;;;;;;5011994;28;20478;-78